logo
Rechercher aéroport 
image banner adimage banner adimage banner ad
image banner ad

FAOB - Overberg - Test Flying&Developing Centre Mil - Unlicensed

Situé à Bredasdorp, South Africa

ICAO - FAOB, IATA - OVG

Données fournies par Airmate  

Information générale

Coordonnées: S34°33'29" E20°14'57"
Élévation : 52 feet MSL.
Variation magnétique : -27° East
Voir autres Aéroports à Western Cape

Données opérationnelles

Special qualification required
Heure actuelle UTC:
Heure actuelle locale:
Météo à : - ( 0 km )
METAR: PAKX 191415Z AUTO 00000KT 7SM BKN110 01/01 A3000 RMK AO2
Voir NOTAMs / SUP AIP / TFR affectant cet aéroport [VIEW]
Fréquences de communication: [VIEW]

Pistes:

Identifiant RWYQFULongueur (ft)Largeur (ft)SurfaceLDA (ft)
17146°10199142ASPH10203
35326°10199142ASPH10203
1075°6896100ASPH6926
28255°6896100ASPH6926

Coordonnées de l'aéroport

Adresse: Bredasdorp South Africa

Vue satellite de FAOB